sensor_id;sensor_type;location;lat;lon;timestamp;P1;durP1;ratioP1;P2;durP2;ratioP2
22129;SDS011;11231;50.746;4.272;2024-01-10T00:00:29;16.97;;;6.97;;
22129;SDS011;11231;50.746;4.272;2024-01-10T00:02:55;16.47;;;6.93;;
22129;SDS011;11231;50.746;4.272;2024-01-10T00:05:23;21.10;;;7.80;;
22129;SDS011;11231;50.746;4.272;2024-01-10T00:07:49;17.87;;;7.70;;
22129;SDS011;11231;50.746;4.272;2024-01-10T00:10:15;17.13;;;7.07;;
22129;SDS011;11231;50.746;4.272;2024-01-10T00:12:42;18.93;;;7.47;;
22129;SDS011;11231;50.746;4.272;2024-01-10T00:15:09;19.27;;;8.00;;
22129;SDS011;11231;50.746;4.272;2024-01-10T00:17:35;15.63;;;7.07;;
22129;SDS011;11231;50.746;4.272;2024-01-10T00:20:01;15.03;;;6.43;;
22129;SDS011;11231;50.746;4.272;2024-01-10T00:22:31;16.93;;;6.83;;
22129;SDS011;11231;50.746;4.272;2024-01-10T00:24:56;17.37;;;6.83;;
22129;SDS011;11231;50.746;4.272;2024-01-10T00:27:22;15.23;;;6.20;;
22129;SDS011;11231;50.746;4.272;2024-01-10T00:29:48;16.97;;;6.93;;
22129;SDS011;11231;50.746;4.272;2024-01-10T00:32:14;17.87;;;7.40;;
22129;SDS011;11231;50.746;4.272;2024-01-10T00:34:45;15.43;;;6.57;;
22129;SDS011;11231;50.746;4.272;2024-01-10T00:37:13;18.10;;;6.60;;
22129;SDS011;11231;50.746;4.272;2024-01-10T00:39:39;17.17;;;7.30;;
22129;SDS011;11231;50.746;4.272;2024-01-10T00:42:08;17.67;;;7.17;;
22129;SDS011;11231;50.746;4.272;2024-01-10T00:44:34;16.93;;;7.23;;
22129;SDS011;11231;50.746;4.272;2024-01-10T00:47:01;16.00;;;6.57;;
22129;SDS011;11231;50.746;4.272;2024-01-10T00:49:28;16.47;;;7.10;;
22129;SDS011;11231;50.746;4.272;2024-01-10T00:51:57;15.50;;;6.30;;
22129;SDS011;11231;50.746;4.272;2024-01-10T00:54:23;15.10;;;6.63;;
22129;SDS011;11231;50.746;4.272;2024-01-10T00:56:49;18.03;;;7.03;;
22129;SDS011;11231;50.746;4.272;2024-01-10T00:59:15;13.43;;;6.40;;
22129;SDS011;11231;50.746;4.272;2024-01-10T01:01:44;14.43;;;6.20;;
22129;SDS011;11231;50.746;4.272;2024-01-10T01:04:10;15.87;;;6.77;;
22129;SDS011;11231;50.746;4.272;2024-01-10T01:06:36;16.37;;;6.20;;
22129;SDS011;11231;50.746;4.272;2024-01-10T01:09:04;15.93;;;6.57;;
22129;SDS011;11231;50.746;4.272;2024-01-10T01:11:30;16.90;;;6.30;;
22129;SDS011;11231;50.746;4.272;2024-01-10T01:13:56;16.37;;;6.50;;
22129;SDS011;11231;50.746;4.272;2024-01-10T01:16:24;13.97;;;6.33;;
22129;SDS011;11231;50.746;4.272;2024-01-10T01:18:50;15.67;;;6.50;;
22129;SDS011;11231;50.746;4.272;2024-01-10T01:21:16;14.33;;;6.27;;
22129;SDS011;11231;50.746;4.272;2024-01-10T01:23:42;16.60;;;7.03;;
22129;SDS011;11231;50.746;4.272;2024-01-10T01:26:08;14.50;;;6.43;;
22129;SDS011;11231;50.746;4.272;2024-01-10T01:28:37;16.67;;;7.07;;
22129;SDS011;11231;50.746;4.272;2024-01-10T01:31:02;18.20;;;6.73;;
22129;SDS011;11231;50.746;4.272;2024-01-10T01:33:29;17.23;;;7.07;;
22129;SDS011;11231;50.746;4.272;2024-01-10T01:35:55;14.43;;;6.10;;
22129;SDS011;11231;50.746;4.272;2024-01-10T01:38:22;14.30;;;6.70;;
22129;SDS011;11231;50.746;4.272;2024-01-10T01:40:51;15.50;;;6.77;;
22129;SDS011;11231;50.746;4.272;2024-01-10T01:43:21;14.60;;;6.23;;
22129;SDS011;11231;50.746;4.272;2024-01-10T01:45:53;17.23;;;6.87;;
22129;SDS011;11231;50.746;4.272;2024-01-10T01:48:23;16.83;;;7.03;;
22129;SDS011;11231;50.746;4.272;2024-01-10T01:50:51;16.53;;;6.57;;
22129;SDS011;11231;50.746;4.272;2024-01-10T01:53:20;16.63;;;6.50;;
22129;SDS011;11231;50.746;4.272;2024-01-10T01:55:46;18.30;;;7.13;;
22129;SDS011;11231;50.746;4.272;2024-01-10T01:58:12;17.37;;;7.63;;
22129;SDS011;11231;50.746;4.272;2024-01-10T02:00:39;17.53;;;6.93;;
22129;SDS011;11231;50.746;4.272;2024-01-10T02:03:05;15.97;;;6.63;;
22129;SDS011;11231;50.746;4.272;2024-01-10T02:05:36;17.57;;;7.53;;
22129;SDS011;11231;50.746;4.272;2024-01-10T02:08:03;18.67;;;6.77;;
22129;SDS011;11231;50.746;4.272;2024-01-10T02:10:29;17.33;;;7.33;;
22129;SDS011;11231;50.746;4.272;2024-01-10T02:12:55;18.10;;;7.43;;
22129;SDS011;11231;50.746;4.272;2024-01-10T02:15:21;16.37;;;7.33;;
22129;SDS011;11231;50.746;4.272;2024-01-10T02:17:50;16.57;;;7.00;;
22129;SDS011;11231;50.746;4.272;2024-01-10T02:20:16;16.87;;;7.10;;
22129;SDS011;11231;50.746;4.272;2024-01-10T02:22:42;17.13;;;7.40;;
22129;SDS011;11231;50.746;4.272;2024-01-10T02:25:11;16.73;;;7.03;;
22129;SDS011;11231;50.746;4.272;2024-01-10T02:27:39;17.77;;;7.13;;
22129;SDS011;11231;50.746;4.272;2024-01-10T02:30:08;19.70;;;7.50;;
22129;SDS011;11231;50.746;4.272;2024-01-10T02:32:36;17.60;;;7.10;;
22129;SDS011;11231;50.746;4.272;2024-01-10T02:35:02;16.93;;;7.03;;
22129;SDS011;11231;50.746;4.272;2024-01-10T02:37:28;17.93;;;7.10;;
22129;SDS011;11231;50.746;4.272;2024-01-10T02:39:54;16.63;;;7.43;;
22129;SDS011;11231;50.746;4.272;2024-01-10T02:42:20;17.53;;;7.60;;
22129;SDS011;11231;50.746;4.272;2024-01-10T02:44:45;16.27;;;7.47;;
22129;SDS011;11231;50.746;4.272;2024-01-10T02:47:11;15.87;;;6.90;;
22129;SDS011;11231;50.746;4.272;2024-01-10T02:49:38;16.33;;;7.23;;
22129;SDS011;11231;50.746;4.272;2024-01-10T02:52:04;19.60;;;8.07;;
22129;SDS011;11231;50.746;4.272;2024-01-10T02:54:30;14.47;;;6.43;;
22129;SDS011;11231;50.746;4.272;2024-01-10T02:56:56;18.87;;;7.47;;
22129;SDS011;11231;50.746;4.272;2024-01-10T02:59:22;17.73;;;7.53;;
22129;SDS011;11231;50.746;4.272;2024-01-10T03:01:47;18.60;;;7.27;;
22129;SDS011;11231;50.746;4.272;2024-01-10T03:04:13;17.90;;;7.50;;
22129;SDS011;11231;50.746;4.272;2024-01-10T03:06:39;21.20;;;8.90;;
22129;SDS011;11231;50.746;4.272;2024-01-10T03:09:05;18.07;;;8.43;;
22129;SDS011;11231;50.746;4.272;2024-01-10T03:11:31;19.20;;;8.07;;
22129;SDS011;11231;50.746;4.272;2024-01-10T03:14:03;19.90;;;9.23;;
22129;SDS011;11231;50.746;4.272;2024-01-10T03:16:32;22.43;;;9.00;;
22129;SDS011;11231;50.746;4.272;2024-01-10T03:18:58;21.57;;;8.87;;
22129;SDS011;11231;50.746;4.272;2024-01-10T03:21:25;18.53;;;7.87;;
22129;SDS011;11231;50.746;4.272;2024-01-10T03:23:52;20.13;;;8.10;;
22129;SDS011;11231;50.746;4.272;2024-01-10T03:26:21;18.83;;;8.03;;
22129;SDS011;11231;50.746;4.272;2024-01-10T03:28:47;20.87;;;8.87;;
22129;SDS011;11231;50.746;4.272;2024-01-10T03:31:14;17.20;;;7.90;;
22129;SDS011;11231;50.746;4.272;2024-01-10T03:33:40;20.70;;;7.37;;
22129;SDS011;11231;50.746;4.272;2024-01-10T03:36:06;21.57;;;7.17;;
22129;SDS011;11231;50.746;4.272;2024-01-10T03:38:34;18.70;;;8.53;;
22129;SDS011;11231;50.746;4.272;2024-01-10T03:40:59;17.67;;;7.57;;
22129;SDS011;11231;50.746;4.272;2024-01-10T03:43:25;16.77;;;7.23;;
22129;SDS011;11231;50.746;4.272;2024-01-10T03:45:51;18.70;;;8.10;;
22129;SDS011;11231;50.746;4.272;2024-01-10T03:48:16;21.87;;;8.13;;
22129;SDS011;11231;50.746;4.272;2024-01-10T03:50:42;17.53;;;7.93;;
22129;SDS011;11231;50.746;4.272;2024-01-10T03:53:08;15.87;;;7.20;;
22129;SDS011;11231;50.746;4.272;2024-01-10T03:55:34;20.27;;;7.90;;
22129;SDS011;11231;50.746;4.272;2024-01-10T03:57:59;17.53;;;7.20;;
22129;SDS011;11231;50.746;4.272;2024-01-10T04:00:25;15.60;;;7.80;;
22129;SDS011;11231;50.746;4.272;2024-01-10T04:02:52;18.83;;;8.70;;
22129;SDS011;11231;50.746;4.272;2024-01-10T04:05:18;17.90;;;7.90;;
22129;SDS011;11231;50.746;4.272;2024-01-10T04:07:45;20.73;;;7.67;;
22129;SDS011;11231;50.746;4.272;2024-01-10T04:10:12;16.83;;;6.93;;
22129;SDS011;11231;50.746;4.272;2024-01-10T04:12:42;15.50;;;7.27;;
22129;SDS011;11231;50.746;4.272;2024-01-10T04:15:08;20.70;;;9.70;;
22129;SDS011;11231;50.746;4.272;2024-01-10T04:17:34;19.63;;;8.27;;
22129;SDS011;11231;50.746;4.272;2024-01-10T04:20:01;17.83;;;8.20;;
22129;SDS011;11231;50.746;4.272;2024-01-10T04:22:27;19.17;;;8.10;;
22129;SDS011;11231;50.746;4.272;2024-01-10T04:24:53;17.40;;;7.53;;
22129;SDS011;11231;50.746;4.272;2024-01-10T04:27:19;19.27;;;7.50;;
22129;SDS011;11231;50.746;4.272;2024-01-10T04:29:44;17.23;;;7.53;;
22129;SDS011;11231;50.746;4.272;2024-01-10T04:32:10;21.00;;;7.73;;
22129;SDS011;11231;50.746;4.272;2024-01-10T04:34:36;16.57;;;7.50;;
22129;SDS011;11231;50.746;4.272;2024-01-10T04:37:02;17.77;;;7.43;;
22129;SDS011;11231;50.746;4.272;2024-01-10T04:39:28;18.67;;;8.23;;
22129;SDS011;11231;50.746;4.272;2024-01-10T04:41:54;19.03;;;8.00;;
22129;SDS011;11231;50.746;4.272;2024-01-10T04:44:20;17.40;;;8.13;;
22129;SDS011;11231;50.746;4.272;2024-01-10T04:46:46;17.00;;;7.43;;
22129;SDS011;11231;50.746;4.272;2024-01-10T04:49:13;17.80;;;7.57;;
22129;SDS011;11231;50.746;4.272;2024-01-10T04:51:39;18.30;;;7.57;;
22129;SDS011;11231;50.746;4.272;2024-01-10T04:54:05;17.03;;;7.57;;
22129;SDS011;11231;50.746;4.272;2024-01-10T04:56:30;17.67;;;7.50;;
22129;SDS011;11231;50.746;4.272;2024-01-10T04:58:59;17.67;;;7.60;;
22129;SDS011;11231;50.746;4.272;2024-01-10T05:01:25;17.37;;;7.80;;
22129;SDS011;11231;50.746;4.272;2024-01-10T05:03:50;18.20;;;7.97;;
22129;SDS011;11231;50.746;4.272;2024-01-10T05:06:16;19.93;;;8.17;;
22129;SDS011;11231;50.746;4.272;2024-01-10T05:08:42;20.00;;;8.10;;
22129;SDS011;11231;50.746;4.272;2024-01-10T05:11:08;18.37;;;7.93;;
22129;SDS011;11231;50.746;4.272;2024-01-10T05:13:34;18.70;;;7.60;;
22129;SDS011;11231;50.746;4.272;2024-01-10T05:16:00;16.50;;;7.60;;
22129;SDS011;11231;50.746;4.272;2024-01-10T05:18:26;19.67;;;8.57;;
22129;SDS011;11231;50.746;4.272;2024-01-10T05:20:52;19.70;;;8.70;;
22129;SDS011;11231;50.746;4.272;2024-01-10T05:23:17;18.07;;;8.20;;
22129;SDS011;11231;50.746;4.272;2024-01-10T05:25:43;17.47;;;7.90;;
22129;SDS011;11231;50.746;4.272;2024-01-10T05:28:09;17.57;;;8.00;;
22129;SDS011;11231;50.746;4.272;2024-01-10T05:30:34;18.77;;;8.90;;
22129;SDS011;11231;50.746;4.272;2024-01-10T05:33:00;17.17;;;7.77;;
22129;SDS011;11231;50.746;4.272;2024-01-10T05:35:26;17.27;;;7.57;;
22129;SDS011;11231;50.746;4.272;2024-01-10T05:37:52;19.73;;;7.87;;
22129;SDS011;11231;50.746;4.272;2024-01-10T05:40:18;21.17;;;8.50;;
22129;SDS011;11231;50.746;4.272;2024-01-10T05:42:44;20.80;;;8.20;;
22129;SDS011;11231;50.746;4.272;2024-01-10T05:45:10;18.33;;;7.83;;
22129;SDS011;11231;50.746;4.272;2024-01-10T05:47:36;17.90;;;7.63;;
22129;SDS011;11231;50.746;4.272;2024-01-10T05:50:02;20.07;;;7.17;;
22129;SDS011;11231;50.746;4.272;2024-01-10T05:52:31;18.97;;;8.33;;
22129;SDS011;11231;50.746;4.272;2024-01-10T05:54:58;20.80;;;8.40;;
22129;SDS011;11231;50.746;4.272;2024-01-10T05:57:26;19.57;;;8.03;;
22129;SDS011;11231;50.746;4.272;2024-01-10T05:59:52;16.90;;;7.00;;
22129;SDS011;11231;50.746;4.272;2024-01-10T06:02:22;24.80;;;8.70;;
22129;SDS011;11231;50.746;4.272;2024-01-10T06:04:49;20.10;;;8.17;;
22129;SDS011;11231;50.746;4.272;2024-01-10T06:07:18;19.27;;;8.00;;
22129;SDS011;11231;50.746;4.272;2024-01-10T06:09:46;17.57;;;8.27;;
22129;SDS011;11231;50.746;4.272;2024-01-10T06:12:12;20.17;;;8.90;;
22129;SDS011;11231;50.746;4.272;2024-01-10T06:14:38;18.73;;;8.73;;
22129;SDS011;11231;50.746;4.272;2024-01-10T06:17:04;19.73;;;8.63;;
22129;SDS011;11231;50.746;4.272;2024-01-10T06:19:31;23.10;;;8.23;;
22129;SDS011;11231;50.746;4.272;2024-01-10T06:21:57;19.77;;;8.20;;
22129;SDS011;11231;50.746;4.272;2024-01-10T06:24:23;21.00;;;7.97;;
22129;SDS011;11231;50.746;4.272;2024-01-10T06:26:50;19.90;;;9.17;;
22129;SDS011;11231;50.746;4.272;2024-01-10T06:29:16;19.77;;;8.87;;
22129;SDS011;11231;50.746;4.272;2024-01-10T06:31:42;20.13;;;8.67;;
22129;SDS011;11231;50.746;4.272;2024-01-10T06:34:08;21.80;;;9.30;;
22129;SDS011;11231;50.746;4.272;2024-01-10T06:36:34;24.30;;;9.37;;
22129;SDS011;11231;50.746;4.272;2024-01-10T06:39:00;19.77;;;8.97;;
22129;SDS011;11231;50.746;4.272;2024-01-10T06:41:26;20.67;;;8.53;;
22129;SDS011;11231;50.746;4.272;2024-01-10T06:43:52;22.37;;;8.90;;
22129;SDS011;11231;50.746;4.272;2024-01-10T06:46:19;21.07;;;9.40;;
22129;SDS011;11231;50.746;4.272;2024-01-10T06:48:45;22.50;;;9.90;;
22129;SDS011;11231;50.746;4.272;2024-01-10T06:51:14;21.77;;;9.53;;
22129;SDS011;11231;50.746;4.272;2024-01-10T06:53:40;20.90;;;9.07;;
22129;SDS011;11231;50.746;4.272;2024-01-10T06:56:07;18.73;;;8.20;;
22129;SDS011;11231;50.746;4.272;2024-01-10T06:58:35;20.30;;;9.37;;
22129;SDS011;11231;50.746;4.272;2024-01-10T07:01:00;23.90;;;8.60;;
22129;SDS011;11231;50.746;4.272;2024-01-10T07:03:29;22.03;;;8.77;;
22129;SDS011;11231;50.746;4.272;2024-01-10T07:05:55;23.87;;;10.40;;
22129;SDS011;11231;50.746;4.272;2024-01-10T07:08:22;19.27;;;8.87;;
22129;SDS011;11231;50.746;4.272;2024-01-10T07:10:48;26.87;;;12.67;;
22129;SDS011;11231;50.746;4.272;2024-01-10T07:13:13;23.63;;;9.70;;
22129;SDS011;11231;50.746;4.272;2024-01-10T07:15:39;22.00;;;10.90;;
22129;SDS011;11231;50.746;4.272;2024-01-10T07:18:05;24.87;;;9.93;;
22129;SDS011;11231;50.746;4.272;2024-01-10T07:20:31;24.10;;;9.67;;
22129;SDS011;11231;50.746;4.272;2024-01-10T07:22:58;19.90;;;8.80;;
22129;SDS011;11231;50.746;4.272;2024-01-10T07:25:24;19.07;;;8.20;;
22129;SDS011;11231;50.746;4.272;2024-01-10T07:27:51;22.63;;;9.17;;
22129;SDS011;11231;50.746;4.272;2024-01-10T07:30:17;23.23;;;8.67;;
22129;SDS011;11231;50.746;4.272;2024-01-10T07:32:43;17.97;;;8.00;;
22129;SDS011;11231;50.746;4.272;2024-01-10T07:35:10;18.17;;;8.63;;
22129;SDS011;11231;50.746;4.272;2024-01-10T07:37:40;22.00;;;8.33;;
22129;SDS011;11231;50.746;4.272;2024-01-10T07:40:07;20.87;;;8.90;;
22129;SDS011;11231;50.746;4.272;2024-01-10T07:42:35;18.40;;;8.07;;
22129;SDS011;11231;50.746;4.272;2024-01-10T07:45:02;23.27;;;8.43;;
22129;SDS011;11231;50.746;4.272;2024-01-10T07:47:31;18.13;;;8.33;;
22129;SDS011;11231;50.746;4.272;2024-01-10T07:49:59;21.90;;;8.63;;
22129;SDS011;11231;50.746;4.272;2024-01-10T07:52:25;21.53;;;8.43;;
22129;SDS011;11231;50.746;4.272;2024-01-10T07:54:51;20.50;;;8.73;;
22129;SDS011;11231;50.746;4.272;2024-01-10T07:57:17;21.13;;;8.77;;
22129;SDS011;11231;50.746;4.272;2024-01-10T07:59:44;25.00;;;9.17;;
22129;SDS011;11231;50.746;4.272;2024-01-10T08:02:10;19.50;;;8.77;;
22129;SDS011;11231;50.746;4.272;2024-01-10T08:04:37;19.07;;;8.63;;
22129;SDS011;11231;50.746;4.272;2024-01-10T08:07:02;23.00;;;8.77;;
22129;SDS011;11231;50.746;4.272;2024-01-10T08:09:28;21.43;;;8.80;;
22129;SDS011;11231;50.746;4.272;2024-01-10T08:11:54;23.77;;;8.50;;
22129;SDS011;11231;50.746;4.272;2024-01-10T08:14:20;20.43;;;8.53;;
22129;SDS011;11231;50.746;4.272;2024-01-10T08:16:46;22.17;;;9.30;;
22129;SDS011;11231;50.746;4.272;2024-01-10T08:19:11;20.40;;;8.67;;
22129;SDS011;11231;50.746;4.272;2024-01-10T08:21:37;19.87;;;9.17;;
22129;SDS011;11231;50.746;4.272;2024-01-10T08:24:03;20.50;;;8.53;;
22129;SDS011;11231;50.746;4.272;2024-01-10T08:26:30;21.77;;;8.93;;
22129;SDS011;11231;50.746;4.272;2024-01-10T08:28:55;21.40;;;9.00;;
22129;SDS011;11231;50.746;4.272;2024-01-10T08:31:21;22.77;;;9.43;;
22129;SDS011;11231;50.746;4.272;2024-01-10T08:33:48;17.90;;;8.40;;
22129;SDS011;11231;50.746;4.272;2024-01-10T08:36:14;26.50;;;9.17;;
22129;SDS011;11231;50.746;4.272;2024-01-10T08:38:40;19.10;;;9.40;;
22129;SDS011;11231;50.746;4.272;2024-01-10T08:41:09;22.97;;;9.70;;
22129;SDS011;11231;50.746;4.272;2024-01-10T08:43:37;21.50;;;8.47;;
22129;SDS011;11231;50.746;4.272;2024-01-10T08:46:03;20.67;;;8.73;;
22129;SDS011;11231;50.746;4.272;2024-01-10T08:48:29;20.70;;;9.07;;
22129;SDS011;11231;50.746;4.272;2024-01-10T08:50:55;22.37;;;9.30;;
22129;SDS011;11231;50.746;4.272;2024-01-10T08:53:24;19.93;;;8.80;;
22129;SDS011;11231;50.746;4.272;2024-01-10T08:55:50;20.50;;;7.97;;
22129;SDS011;11231;50.746;4.272;2024-01-10T08:58:15;22.30;;;8.23;;
22129;SDS011;11231;50.746;4.272;2024-01-10T09:00:41;21.60;;;9.40;;
22129;SDS011;11231;50.746;4.272;2024-01-10T09:03:07;23.13;;;9.23;;
22129;SDS011;11231;50.746;4.272;2024-01-10T09:05:34;20.13;;;8.97;;
22129;SDS011;11231;50.746;4.272;2024-01-10T09:07:59;19.97;;;8.87;;
22129;SDS011;11231;50.746;4.272;2024-01-10T09:10:25;20.60;;;8.47;;
22129;SDS011;11231;50.746;4.272;2024-01-10T09:12:53;19.10;;;8.27;;
22129;SDS011;11231;50.746;4.272;2024-01-10T09:15:19;23.20;;;9.43;;
22129;SDS011;11231;50.746;4.272;2024-01-10T09:17:44;21.47;;;10.07;;
22129;SDS011;11231;50.746;4.272;2024-01-10T09:20:11;21.73;;;8.93;;
22129;SDS011;11231;50.746;4.272;2024-01-10T09:22:38;23.77;;;8.80;;
22129;SDS011;11231;50.746;4.272;2024-01-10T09:25:04;20.77;;;8.97;;
22129;SDS011;11231;50.746;4.272;2024-01-10T09:27:34;19.37;;;8.43;;
22129;SDS011;11231;50.746;4.272;2024-01-10T09:30:00;18.50;;;8.57;;
22129;SDS011;11231;50.746;4.272;2024-01-10T09:32:33;21.03;;;8.70;;
22129;SDS011;11231;50.746;4.272;2024-01-10T09:35:00;22.10;;;9.20;;
22129;SDS011;11231;50.746;4.272;2024-01-10T09:37:26;22.27;;;9.80;;
22129;SDS011;11231;50.746;4.272;2024-01-10T09:39:52;19.00;;;9.27;;
22129;SDS011;11231;50.746;4.272;2024-01-10T09:42:18;19.87;;;8.87;;
22129;SDS011;11231;50.746;4.272;2024-01-10T09:44:46;21.13;;;8.97;;
22129;SDS011;11231;50.746;4.272;2024-01-10T09:47:13;18.00;;;8.47;;
22129;SDS011;11231;50.746;4.272;2024-01-10T09:49:41;20.23;;;8.70;;
22129;SDS011;11231;50.746;4.272;2024-01-10T09:52:10;24.83;;;9.70;;
22129;SDS011;11231;50.746;4.272;2024-01-10T09:54:40;21.33;;;8.53;;
22129;SDS011;11231;50.746;4.272;2024-01-10T09:57:08;19.17;;;7.97;;
22129;SDS011;11231;50.746;4.272;2024-01-10T09:59:35;24.03;;;9.13;;
22129;SDS011;11231;50.746;4.272;2024-01-10T10:02:00;25.20;;;9.70;;
22129;SDS011;11231;50.746;4.272;2024-01-10T10:04:29;18.83;;;7.70;;
22129;SDS011;11231;50.746;4.272;2024-01-10T10:06:59;21.87;;;8.90;;
22129;SDS011;11231;50.746;4.272;2024-01-10T10:09:27;20.73;;;9.67;;
22129;SDS011;11231;50.746;4.272;2024-01-10T10:11:55;22.43;;;8.83;;
22129;SDS011;11231;50.746;4.272;2024-01-10T10:14:21;22.50;;;9.20;;
22129;SDS011;11231;50.746;4.272;2024-01-10T10:16:47;21.33;;;9.40;;
22129;SDS011;11231;50.746;4.272;2024-01-10T10:19:13;21.30;;;8.93;;
22129;SDS011;11231;50.746;4.272;2024-01-10T10:21:48;22.40;;;9.03;;
22129;SDS011;11231;50.746;4.272;2024-01-10T10:24:14;22.23;;;8.93;;
22129;SDS011;11231;50.746;4.272;2024-01-10T10:26:40;21.17;;;8.70;;
22129;SDS011;11231;50.746;4.272;2024-01-10T10:29:06;21.33;;;8.60;;
22129;SDS011;11231;50.746;4.272;2024-01-10T10:31:32;21.77;;;8.60;;
22129;SDS011;11231;50.746;4.272;2024-01-10T10:33:59;21.20;;;9.37;;
22129;SDS011;11231;50.746;4.272;2024-01-10T10:36:27;17.67;;;9.03;;
22129;SDS011;11231;50.746;4.272;2024-01-10T10:38:55;19.07;;;8.90;;
22129;SDS011;11231;50.746;4.272;2024-01-10T10:41:21;19.77;;;9.23;;
22129;SDS011;11231;50.746;4.272;2024-01-10T10:43:47;21.10;;;9.97;;
22129;SDS011;11231;50.746;4.272;2024-01-10T10:46:15;18.20;;;9.07;;
22129;SDS011;11231;50.746;4.272;2024-01-10T10:48:41;17.07;;;8.67;;
22129;SDS011;11231;50.746;4.272;2024-01-10T10:51:08;20.50;;;9.67;;
22129;SDS011;11231;50.746;4.272;2024-01-10T10:53:39;20.30;;;9.77;;
22129;SDS011;11231;50.746;4.272;2024-01-10T10:56:10;19.77;;;8.70;;
22129;SDS011;11231;50.746;4.272;2024-01-10T10:58:38;18.60;;;8.93;;
22129;SDS011;11231;50.746;4.272;2024-01-10T11:01:06;19.67;;;9.17;;
22129;SDS011;11231;50.746;4.272;2024-01-10T11:03:37;21.77;;;8.90;;
22129;SDS011;11231;50.746;4.272;2024-01-10T11:06:12;19.87;;;8.97;;
22129;SDS011;11231;50.746;4.272;2024-01-10T11:08:48;20.93;;;9.23;;
22129;SDS011;11231;50.746;4.272;2024-01-10T11:14:23;19.80;;;9.10;;
22129;SDS011;11231;50.746;4.272;2024-01-10T11:17:14;18.97;;;9.70;;
22129;SDS011;11231;50.746;4.272;2024-01-10T11:20:14;18.17;;;9.83;;
22129;SDS011;11231;50.746;4.272;2024-01-10T11:25:29;21.53;;;9.77;;
22129;SDS011;11231;50.746;4.272;2024-01-10T11:27:55;21.70;;;9.40;;
22129;SDS011;11231;50.746;4.272;2024-01-10T11:30:34;17.10;;;8.60;;
22129;SDS011;11231;50.746;4.272;2024-01-10T11:33:24;17.80;;;9.20;;
22129;SDS011;11231;50.746;4.272;2024-01-10T11:38:49;22.43;;;10.10;;
22129;SDS011;11231;50.746;4.272;2024-01-10T11:41:37;18.33;;;8.77;;
22129;SDS011;11231;50.746;4.272;2024-01-10T11:49:08;19.63;;;9.57;;
22129;SDS011;11231;50.746;4.272;2024-01-10T11:51:38;18.50;;;8.90;;
22129;SDS011;11231;50.746;4.272;2024-01-10T11:54:04;18.33;;;8.97;;
22129;SDS011;11231;50.746;4.272;2024-01-10T11:59:10;20.80;;;9.77;;
22129;SDS011;11231;50.746;4.272;2024-01-10T12:01:37;21.97;;;9.37;;
22129;SDS011;11231;50.746;4.272;2024-01-10T12:04:04;18.93;;;9.03;;
22129;SDS011;11231;50.746;4.272;2024-01-10T12:06:30;23.67;;;9.60;;
22129;SDS011;11231;50.746;4.272;2024-01-10T12:08:57;20.57;;;9.03;;
22129;SDS011;11231;50.746;4.272;2024-01-10T12:11:24;31.43;;;15.97;;
22129;SDS011;11231;50.746;4.272;2024-01-10T12:13:50;20.33;;;9.43;;
22129;SDS011;11231;50.746;4.272;2024-01-10T12:16:16;22.27;;;10.37;;
22129;SDS011;11231;50.746;4.272;2024-01-10T12:18:43;18.63;;;9.23;;
22129;SDS011;11231;50.746;4.272;2024-01-10T12:21:09;21.37;;;10.33;;
22129;SDS011;11231;50.746;4.272;2024-01-10T12:23:36;19.10;;;8.90;;
22129;SDS011;11231;50.746;4.272;2024-01-10T12:26:04;22.70;;;10.10;;
22129;SDS011;11231;50.746;4.272;2024-01-10T12:28:40;27.40;;;11.87;;
22129;SDS011;11231;50.746;4.272;2024-01-10T12:31:07;21.80;;;9.90;;
22129;SDS011;11231;50.746;4.272;2024-01-10T12:33:33;20.93;;;9.77;;
22129;SDS011;11231;50.746;4.272;2024-01-10T12:38:32;22.13;;;10.20;;
22129;SDS011;11231;50.746;4.272;2024-01-10T12:40:59;21.17;;;10.17;;
22129;SDS011;11231;50.746;4.272;2024-01-10T12:43:26;20.73;;;10.00;;
22129;SDS011;11231;50.746;4.272;2024-01-10T12:46:07;22.50;;;9.67;;
22129;SDS011;11231;50.746;4.272;2024-01-10T12:48:36;21.33;;;9.93;;
22129;SDS011;11231;50.746;4.272;2024-01-10T12:51:03;21.37;;;10.13;;
22129;SDS011;11231;50.746;4.272;2024-01-10T12:53:38;23.10;;;10.63;;
22129;SDS011;11231;50.746;4.272;2024-01-10T12:56:07;20.43;;;10.33;;
22129;SDS011;11231;50.746;4.272;2024-01-10T12:58:34;21.43;;;10.20;;
22129;SDS011;11231;50.746;4.272;2024-01-10T13:01:02;20.73;;;9.80;;
22129;SDS011;11231;50.746;4.272;2024-01-10T13:03:31;20.67;;;9.93;;
22129;SDS011;11231;50.746;4.272;2024-01-10T13:05:57;18.10;;;9.53;;
22129;SDS011;11231;50.746;4.272;2024-01-10T13:08:23;20.00;;;9.73;;
22129;SDS011;11231;50.746;4.272;2024-01-10T13:10:49;22.97;;;10.20;;
22129;SDS011;11231;50.746;4.272;2024-01-10T13:13:15;22.50;;;10.40;;
22129;SDS011;11231;50.746;4.272;2024-01-10T13:15:43;20.43;;;10.30;;
22129;SDS011;11231;50.746;4.272;2024-01-10T13:18:10;22.83;;;10.90;;
22129;SDS011;11231;50.746;4.272;2024-01-10T13:20:36;22.33;;;10.47;;
22129;SDS011;11231;50.746;4.272;2024-01-10T13:23:23;24.47;;;10.03;;
22129;SDS011;11231;50.746;4.272;2024-01-10T13:25:52;20.77;;;10.37;;
22129;SDS011;11231;50.746;4.272;2024-01-10T13:28:18;23.67;;;10.97;;
22129;SDS011;11231;50.746;4.272;2024-01-10T13:30:44;21.70;;;9.93;;
22129;SDS011;11231;50.746;4.272;2024-01-10T13:33:10;24.13;;;10.13;;
22129;SDS011;11231;50.746;4.272;2024-01-10T13:35:36;21.47;;;9.90;;
22129;SDS011;11231;50.746;4.272;2024-01-10T13:38:02;19.77;;;9.37;;
22129;SDS011;11231;50.746;4.272;2024-01-10T13:40:29;24.53;;;11.03;;
22129;SDS011;11231;50.746;4.272;2024-01-10T13:42:56;19.77;;;10.40;;
22129;SDS011;11231;50.746;4.272;2024-01-10T13:45:23;23.60;;;10.73;;
22129;SDS011;11231;50.746;4.272;2024-01-10T13:47:50;24.40;;;11.17;;
22129;SDS011;11231;50.746;4.272;2024-01-10T13:50:16;24.10;;;10.30;;
22129;SDS011;11231;50.746;4.272;2024-01-10T13:52:42;21.10;;;10.40;;
22129;SDS011;11231;50.746;4.272;2024-01-10T13:55:08;27.07;;;11.07;;
22129;SDS011;11231;50.746;4.272;2024-01-10T13:57:34;24.03;;;11.00;;
22129;SDS011;11231;50.746;4.272;2024-01-10T14:00:01;23.43;;;10.47;;
22129;SDS011;11231;50.746;4.272;2024-01-10T14:02:37;22.67;;;10.50;;
22129;SDS011;11231;50.746;4.272;2024-01-10T14:05:03;27.27;;;10.73;;
22129;SDS011;11231;50.746;4.272;2024-01-10T14:07:32;22.50;;;10.47;;
22129;SDS011;11231;50.746;4.272;2024-01-10T14:09:59;25.17;;;11.03;;
22129;SDS011;11231;50.746;4.272;2024-01-10T14:12:26;25.33;;;11.17;;
22129;SDS011;11231;50.746;4.272;2024-01-10T14:14:53;26.00;;;10.53;;
22129;SDS011;11231;50.746;4.272;2024-01-10T14:17:19;25.20;;;10.97;;
22129;SDS011;11231;50.746;4.272;2024-01-10T14:19:44;23.57;;;11.17;;
22129;SDS011;11231;50.746;4.272;2024-01-10T14:22:10;23.07;;;10.47;;
22129;SDS011;11231;50.746;4.272;2024-01-10T14:24:36;23.43;;;11.13;;
22129;SDS011;11231;50.746;4.272;2024-01-10T14:27:03;25.70;;;11.00;;
22129;SDS011;11231;50.746;4.272;2024-01-10T14:29:29;23.63;;;10.40;;
22129;SDS011;11231;50.746;4.272;2024-01-10T14:31:55;23.97;;;10.80;;
22129;SDS011;11231;50.746;4.272;2024-01-10T14:34:21;23.20;;;10.80;;
22129;SDS011;11231;50.746;4.272;2024-01-10T14:36:47;24.47;;;11.50;;
22129;SDS011;11231;50.746;4.272;2024-01-10T14:39:12;24.90;;;10.60;;
22129;SDS011;11231;50.746;4.272;2024-01-10T14:41:40;23.03;;;11.00;;
22129;SDS011;11231;50.746;4.272;2024-01-10T14:44:05;23.00;;;11.03;;
22129;SDS011;11231;50.746;4.272;2024-01-10T14:46:31;28.77;;;11.40;;
22129;SDS011;11231;50.746;4.272;2024-01-10T14:48:57;22.20;;;10.27;;
22129;SDS011;11231;50.746;4.272;2024-01-10T14:51:23;24.30;;;10.90;;